Terminal Aerodrome Forecast
Issued by NWS

Home | Current Version | Previous Version | Text Only | Print | Product List | Glossary On
Versions: 1 2 3 4 5 6 7 8 9 10 11 12 13
747
FTUS42 KMLB 261721
TAFLEE
TAF
KLEE 261721Z 2618/2718 17007KT P6SM SCT035
     FM262000 18004KT P6SM VCTS SCT040CB BKN080
      TEMPO 2622/2624 3SM TSRA BKN020CB OVC040
     FM270000 19003KT P6SM SCT100=

USA.gov is the U.S. government's official web portal to all federal, state and local government web resources and services.